Time;durP1;ratioP1;P1;durP2;ratioP2;P2;SDS_P1;SDS_P2;PMS_P1;PMS_P2;Temp;Humidity;BMP_temperature;BMP_pressure;BME280_temperature;BME280_humidity;BME280_pressure;Samples;Min_cycle;Max_cycle;Signal;HPM_P1;HPM_P2
2023/01/25 00:00:45;;;;;;;3.75;2.15;;;;;;;;;;5016805;28;20053;-72
2023/01/25 00:03:11;;;;;;;4.32;2.72;;;;;;;;;;5009057;28;20485;-74
2023/01/25 00:05:37;;;;;;;3.50;2.40;;;;;;;;;;5019287;28;20026;-73
2023/01/25 00:08:03;;;;;;;4.70;2.75;;;;;;;;;;5020515;28;20025;-73
2023/01/25 00:10:29;;;;;;;3.67;2.50;;;;;;;;;;5016469;28;20887;-73
2023/01/25 00:12:55;;;;;;;4.43;2.67;;;;;;;;;;5019174;28;20096;-73
2023/01/25 00:15:22;;;;;;;4.90;2.58;;;;;;;;;;5017989;28;20030;-73
2023/01/25 00:17:48;;;;;;;5.53;3.28;;;;;;;;;;5022041;28;20032;-73
2023/01/25 00:20:14;;;;;;;4.05;2.38;;;;;;;;;;5011309;28;20386;-73
2023/01/25 00:22:40;;;;;;;2.58;2.20;;;;;;;;;;5015209;28;20350;-73
2023/01/25 00:25:06;;;;;;;5.63;2.53;;;;;;;;;;5012018;28;20026;-73
2023/01/25 00:27:32;;;;;;;4.30;2.42;;;;;;;;;;5013134;28;20115;-73
2023/01/25 00:29:58;;;;;;;4.75;2.67;;;;;;;;;;5015578;28;20077;-73
2023/01/25 00:32:32;;;;;;;4.40;2.38;;;;;;;;;;5009009;28;20022;-73
2023/01/25 00:34:58;;;;;;;3.25;2.30;;;;;;;;;;5014988;28;20033;-73
2023/01/25 00:37:29;;;;;;;5.65;2.83;;;;;;;;;;5018639;28;20041;-74
2023/01/25 00:39:55;;;;;;;7.43;2.50;;;;;;;;;;5023270;28;20037;-73
2023/01/25 00:42:21;;;;;;;3.72;2.30;;;;;;;;;;5015942;28;20276;-74
2023/01/25 00:44:47;;;;;;;3.45;2.30;;;;;;;;;;5027033;28;20036;-73
2023/01/25 00:47:13;;;;;;;4.97;2.50;;;;;;;;;;5016650;28;20037;-73
2023/01/25 00:49:40;;;;;;;4.13;2.28;;;;;;;;;;5019425;28;20038;-73
2023/01/25 00:52:09;;;;;;;4.07;2.28;;;;;;;;;;5006615;28;21426;-73
2023/01/25 00:54:35;;;;;;;4.90;2.55;;;;;;;;;;5016791;28;20084;-73
2023/01/25 00:57:01;;;;;;;3.75;2.35;;;;;;;;;;5019085;28;20045;-73
2023/01/25 00:59:27;;;;;;;5.65;2.58;;;;;;;;;;5014116;28;20073;-74
2023/01/25 01:01:53;;;;;;;6.00;2.15;;;;;;;;;;5017587;28;20041;-73
2023/01/25 01:04:23;;;;;;;4.22;2.58;;;;;;;;;;5017248;28;20501;-73
2023/01/25 01:06:49;;;;;;;3.35;2.25;;;;;;;;;;5012474;28;20029;-73
2023/01/25 01:09:16;;;;;;;3.22;1.92;;;;;;;;;;5014113;28;20659;-73
2023/01/25 01:11:42;;;;;;;4.90;2.38;;;;;;;;;;5011156;28;20607;-73
2023/01/25 01:14:08;;;;;;;3.28;2.22;;;;;;;;;;5015607;28;20037;-73
2023/01/25 01:16:34;;;;;;;5.03;2.30;;;;;;;;;;5009903;28;20055;-73
2023/01/25 01:19:00;;;;;;;4.07;2.38;;;;;;;;;;5012553;28;20044;-73
2023/01/25 01:21:27;;;;;;;4.10;2.55;;;;;;;;;;5010491;28;20116;-73
2023/01/25 01:23:55;;;;;;;3.28;1.90;;;;;;;;;;5021344;28;20025;-73
2023/01/25 01:26:21;;;;;;;5.43;2.50;;;;;;;;;;5020689;28;20393;-73
2023/01/25 01:28:48;;;;;;;3.03;2.05;;;;;;;;;;5009089;28;20127;-73
2023/01/25 01:31:16;;;;;;;3.88;2.00;;;;;;;;;;5019088;28;20021;-73
2023/01/25 01:33:42;;;;;;;4.50;2.20;;;;;;;;;;5010939;28;20033;-73
2023/01/25 01:36:09;;;;;;;3.65;2.35;;;;;;;;;;5010764;28;20040;-73
2023/01/25 01:38:35;;;;;;;4.18;2.08;;;;;;;;;;5014968;28;20140;-73
2023/01/25 01:41:03;;;;;;;3.28;2.00;;;;;;;;;;5013426;28;20030;-73
2023/01/25 01:43:32;;;;;;;5.75;2.30;;;;;;;;;;5008444;28;20030;-73
2023/01/25 01:46:02;;;;;;;4.38;2.17;;;;;;;;;;5014692;28;20029;-73
2023/01/25 01:48:34;;;;;;;3.22;2.15;;;;;;;;;;5012289;28;20037;-73
2023/01/25 01:51:03;;;;;;;3.78;2.30;;;;;;;;;;5023015;28;20071;-72
2023/01/25 01:53:29;;;;;;;3.85;2.17;;;;;;;;;;5015029;28;20026;-72
2023/01/25 01:55:58;;;;;;;3.05;2.20;;;;;;;;;;5015511;28;20029;-72
2023/01/25 01:58:24;;;;;;;3.40;2.28;;;;;;;;;;5012441;28;20026;-73
2023/01/25 02:00:50;;;;;;;4.47;2.35;;;;;;;;;;5017129;28;20107;-72
2023/01/25 02:03:16;;;;;;;4.40;2.67;;;;;;;;;;5017857;28;20437;-73
2023/01/25 02:05:47;;;;;;;2.97;2.20;;;;;;;;;;5014423;28;20048;-72
2023/01/25 02:08:13;;;;;;;3.88;2.20;;;;;;;;;;5022154;28;20025;-73
2023/01/25 02:10:39;;;;;;;5.03;2.63;;;;;;;;;;5018363;28;20057;-74
2023/01/25 02:13:05;;;;;;;2.88;2.03;;;;;;;;;;5015418;28;20033;-73
2023/01/25 02:15:40;;;;;;;3.95;2.40;;;;;;;;;;5009501;28;20032;-72
2023/01/25 02:18:06;;;;;;;5.65;2.15;;;;;;;;;;5024285;28;20499;-72
2023/01/25 02:20:39;;;;;;;3.75;2.33;;;;;;;;;;5017682;28;20038;-73
2023/01/25 02:23:17;;;;;;;2.80;1.80;;;;;;;;;;5019129;28;20494;-72
2023/01/25 02:25:43;;;;;;;4.05;2.55;;;;;;;;;;5010586;28;20096;-73
2023/01/25 02:28:09;;;;;;;5.30;1.85;;;;;;;;;;5020636;28;20655;-72
2023/01/25 02:30:35;;;;;;;3.50;2.10;;;;;;;;;;5023012;28;20486;-73
2023/01/25 02:33:01;;;;;;;3.45;2.67;;;;;;;;;;5018283;28;20033;-71
2023/01/25 02:35:44;;;;;;;6.88;2.53;;;;;;;;;;5008182;28;20034;-73
2023/01/25 02:38:12;;;;;;;4.00;2.40;;;;;;;;;;5012757;28;21113;-73
2023/01/25 02:40:46;;;;;;;3.72;2.35;;;;;;;;;;5010940;28;20042;-72
2023/01/25 02:43:12;;;;;;;3.40;1.98;;;;;;;;;;5011375;28;20155;-73
2023/01/25 02:45:38;;;;;;;3.50;2.15;;;;;;;;;;5016657;28;20037;-73
2023/01/25 02:48:04;;;;;;;3.83;2.17;;;;;;;;;;5019068;28;20039;-72
2023/01/25 02:50:30;;;;;;;3.85;2.28;;;;;;;;;;5018135;28;20397;-72
2023/01/25 02:52:56;;;;;;;3.15;1.98;;;;;;;;;;5012239;28;20038;-73
2023/01/25 02:55:22;;;;;;;3.03;2.03;;;;;;;;;;5027891;28;20041;-72
2023/01/25 02:57:48;;;;;;;3.97;2.38;;;;;;;;;;5017457;28;20029;-73
2023/01/25 03:00:14;;;;;;;2.78;1.58;;;;;;;;;;5013783;28;20406;-73
2023/01/25 03:02:40;;;;;;;3.70;2.55;;;;;;;;;;5008144;28;20104;-72
2023/01/25 03:05:06;;;;;;;3.95;2.33;;;;;;;;;;5014828;28;20040;-72
2023/01/25 03:07:32;;;;;;;4.28;2.25;;;;;;;;;;5010147;28;20489;-73
2023/01/25 03:09:58;;;;;;;3.58;2.05;;;;;;;;;;5015472;28;20091;-73
2023/01/25 03:12:24;;;;;;;2.78;2.00;;;;;;;;;;5018936;28;20049;-73
2023/01/25 03:14:50;;;;;;;2.92;2.20;;;;;;;;;;5014252;28;20037;-73
2023/01/25 03:17:16;;;;;;;3.20;1.90;;;;;;;;;;5007782;28;20033;-74
2023/01/25 03:19:42;;;;;;;3.22;2.30;;;;;;;;;;5013841;28;20564;-73
2023/01/25 03:22:09;;;;;;;4.25;2.17;;;;;;;;;;5015210;28;20056;-74
2023/01/25 03:24:35;;;;;;;6.22;2.38;;;;;;;;;;5014711;28;20041;-73
2023/01/25 03:27:12;;;;;;;4.95;2.28;;;;;;;;;;5019156;28;20481;-73
2023/01/25 03:29:38;;;;;;;3.20;2.15;;;;;;;;;;5011803;28;20061;-73
2023/01/25 03:32:04;;;;;;;2.67;1.98;;;;;;;;;;5010920;28;20025;-74
2023/01/25 03:34:30;;;;;;;2.72;1.70;;;;;;;;;;5021649;28;20481;-73
2023/01/25 03:36:56;;;;;;;3.83;2.20;;;;;;;;;;5012737;28;20478;-73
2023/01/25 03:39:22;;;;;;;3.28;2.20;;;;;;;;;;5007472;28;20433;-73
2023/01/25 03:41:48;;;;;;;3.53;1.85;;;;;;;;;;5010469;28;20555;-73
2023/01/25 03:44:14;;;;;;;3.15;2.30;;;;;;;;;;5018153;28;20033;-73
2023/01/25 03:46:41;;;;;;;3.60;2.20;;;;;;;;;;5020637;28;20107;-72
2023/01/25 03:49:07;;;;;;;3.50;2.30;;;;;;;;;;5016110;28;20103;-73
2023/01/25 03:51:33;;;;;;;3.08;2.10;;;;;;;;;;5018842;28;20021;-73
2023/01/25 03:53:59;;;;;;;3.60;2.30;;;;;;;;;;5025216;28;20025;-73
2023/01/25 03:56:25;;;;;;;4.80;2.35;;;;;;;;;;5019468;28;20038;-73
2023/01/25 03:58:51;;;;;;;5.00;2.17;;;;;;;;;;5015636;28;20026;-73
2023/01/25 04:01:17;;;;;;;3.63;1.95;;;;;;;;;;5017088;28;20033;-72
2023/01/25 04:03:43;;;;;;;4.53;2.22;;;;;;;;;;5019549;28;20033;-73
2023/01/25 04:06:09;;;;;;;3.35;2.00;;;;;;;;;;5010089;28;20025;-74
2023/01/25 04:08:35;;;;;;;4.57;2.17;;;;;;;;;;5019485;28;20087;-73
2023/01/25 04:11:02;;;;;;;3.95;2.22;;;;;;;;;;5026154;28;20036;-73
2023/01/25 04:13:28;;;;;;;4.13;1.67;;;;;;;;;;5016108;28;20380;-73
2023/01/25 04:15:54;;;;;;;4.35;2.38;;;;;;;;;;5022436;28;20030;-73
2023/01/25 04:18:20;;;;;;;3.17;2.17;;;;;;;;;;5023188;28;20184;-73
2023/01/25 04:20:51;;;;;;;3.60;2.13;;;;;;;;;;5020896;28;20485;-73
2023/01/25 04:23:17;;;;;;;4.38;2.70;;;;;;;;;;5018500;28;20030;-73
2023/01/25 04:25:43;;;;;;;5.28;2.30;;;;;;;;;;5019622;28;20036;-73
2023/01/25 04:28:09;;;;;;;2.70;1.75;;;;;;;;;;5024099;28;20400;-75
2023/01/25 04:30:35;;;;;;;3.90;2.40;;;;;;;;;;5022223;28;20044;-74
2023/01/25 04:33:05;;;;;;;2.85;2.00;;;;;;;;;;5026952;28;20083;-74
2023/01/25 04:35:31;;;;;;;2.53;1.95;;;;;;;;;;5019503;28;20034;-74
2023/01/25 04:37:58;;;;;;;2.75;1.90;;;;;;;;;;5016587;28;20040;-80
2023/01/25 04:40:24;;;;;;;4.35;2.15;;;;;;;;;;5016626;28;20473;-77
2023/01/25 04:42:50;;;;;;;4.38;2.17;;;;;;;;;;5016221;28;20507;-78
2023/01/25 04:45:17;;;;;;;3.60;2.00;;;;;;;;;;5021734;28;20116;-78
2023/01/25 04:47:43;;;;;;;4.38;2.17;;;;;;;;;;5022951;28;20091;-78
2023/01/25 04:50:09;;;;;;;2.83;1.85;;;;;;;;;;5015919;28;20029;-77
2023/01/25 04:52:35;;;;;;;3.13;2.20;;;;;;;;;;5019991;28;20033;-78
2023/01/25 04:55:01;;;;;;;8.43;2.92;;;;;;;;;;5029855;28;20026;-77
2023/01/25 04:57:27;;;;;;;3.88;2.40;;;;;;;;;;5018988;28;20476;-78
2023/01/25 04:59:53;;;;;;;3.22;2.20;;;;;;;;;;5015779;28;20041;-78
2023/01/25 05:02:19;;;;;;;6.05;2.05;;;;;;;;;;5022787;28;20054;-78
2023/01/25 05:04:44;;;;;;;5.45;2.38;;;;;;;;;;5021879;28;20533;-78
2023/01/25 05:07:11;;;;;;;3.88;2.20;;;;;;;;;;5028161;28;20033;-78
2023/01/25 05:09:37;;;;;;;3.03;2.05;;;;;;;;;;5026639;28;20096;-77
2023/01/25 05:12:04;;;;;;;3.30;2.08;;;;;;;;;;5027572;28;20477;-77
2023/01/25 05:14:30;;;;;;;3.70;2.17;;;;;;;;;;5013646;28;20034;-78
2023/01/25 05:16:56;;;;;;;4.03;2.22;;;;;;;;;;5025381;28;20387;-77
2023/01/25 05:19:22;;;;;;;3.90;2.33;;;;;;;;;;5022402;28;20025;-78
2023/01/25 05:21:57;;;;;;;4.03;2.13;;;;;;;;;;5019782;28;20034;-78
2023/01/25 05:24:23;;;;;;;5.30;2.40;;;;;;;;;;5020327;28;20030;-77
2023/01/25 05:26:59;;;;;;;5.22;2.72;;;;;;;;;;5025393;28;20034;-78
2023/01/25 05:29:25;;;;;;;2.83;1.80;;;;;;;;;;4993978;28;20481;-78
2023/01/25 05:31:51;;;;;;;6.47;2.50;;;;;;;;;;5011105;28;20033;-78
2023/01/25 05:34:17;;;;;;;3.35;2.53;;;;;;;;;;5022096;28;20025;-76
2023/01/25 05:36:42;;;;;;;3.25;2.42;;;;;;;;;;5014734;28;20037;-77
2023/01/25 05:39:08;;;;;;;3.40;1.98;;;;;;;;;;5012886;28;20041;-77
2023/01/25 05:41:34;;;;;;;3.35;2.25;;;;;;;;;;5012716;28;20032;-77
2023/01/25 05:44:00;;;;;;;2.70;1.70;;;;;;;;;;5018593;28;20529;-77
2023/01/25 05:46:27;;;;;;;4.32;2.38;;;;;;;;;;5010790;28;20376;-77
2023/01/25 05:48:53;;;;;;;4.47;2.30;;;;;;;;;;5009104;28;20454;-76
2023/01/25 05:51:19;;;;;;;3.70;2.20;;;;;;;;;;5011637;28;20030;-77
2023/01/25 05:53:45;;;;;;;3.92;2.08;;;;;;;;;;5013304;28;20121;-77
2023/01/25 05:56:11;;;;;;;4.25;2.17;;;;;;;;;;5021906;28;20037;-77
2023/01/25 05:58:37;;;;;;;2.25;1.90;;;;;;;;;;5018009;28;20116;-71
2023/01/25 06:01:05;;;;;;;6.35;2.25;;;;;;;;;;5020441;28;20076;-71
2023/01/25 06:03:32;;;;;;;2.25;1.80;;;;;;;;;;5040716;28;20033;-72
2023/01/25 06:06:00;;;;;;;4.22;2.42;;;;;;;;;;5018818;28;20030;-72
2023/01/25 06:08:26;;;;;;;3.97;2.28;;;;;;;;;;5024920;28;20049;-72
2023/01/25 06:10:52;;;;;;;7.85;2.05;;;;;;;;;;5028196;28;20029;-73
2023/01/25 06:13:18;;;;;;;3.88;2.30;;;;;;;;;;5019802;28;20041;-71
2023/01/25 06:15:54;;;;;;;3.75;2.28;;;;;;;;;;5021094;28;20026;-74
2023/01/25 06:18:21;;;;;;;3.78;1.85;;;;;;;;;;5035318;28;20473;-74
2023/01/25 06:20:47;;;;;;;3.33;2.33;;;;;;;;;;5027927;28;20512;-74
2023/01/25 06:23:13;;;;;;;3.45;1.95;;;;;;;;;;5029212;28;20025;-74
2023/01/25 06:25:39;;;;;;;3.03;1.80;;;;;;;;;;5027453;28;20037;-74
2023/01/25 06:28:05;;;;;;;2.90;1.92;;;;;;;;;;5016107;28;20026;-72
2023/01/25 06:30:31;;;;;;;3.60;2.28;;;;;;;;;;5007823;28;20049;-72
2023/01/25 06:33:00;;;;;;;5.18;2.40;;;;;;;;;;5018598;28;20473;-72
2023/01/25 06:35:27;;;;;;;5.35;2.58;;;;;;;;;;5027420;28;20509;-74
2023/01/25 06:37:57;;;;;;;3.97;2.38;;;;;;;;;;5011884;28;20172;-73
2023/01/25 06:40:23;;;;;;;5.50;2.97;;;;;;;;;;5020362;28;20034;-73
2023/01/25 06:42:49;;;;;;;4.75;2.42;;;;;;;;;;5025373;28;20482;-74
2023/01/25 06:45:15;;;;;;;7.13;2.22;;;;;;;;;;5026615;28;20040;-73
2023/01/25 06:47:41;;;;;;;3.92;2.53;;;;;;;;;;5021976;28;20041;-73
2023/01/25 06:50:08;;;;;;;3.92;1.88;;;;;;;;;;5020547;28;20029;-74
2023/01/25 06:52:35;;;;;;;4.57;2.17;;;;;;;;;;5026857;28;20045;-73
2023/01/25 06:55:02;;;;;;;4.15;2.15;;;;;;;;;;5026742;28;20025;-74
2023/01/25 06:57:28;;;;;;;3.75;2.30;;;;;;;;;;5026302;28;20088;-73
2023/01/25 06:59:54;;;;;;;6.90;2.20;;;;;;;;;;5021965;28;20128;-73
2023/01/25 07:02:20;;;;;;;4.45;2.15;;;;;;;;;;5026421;28;20025;-73
2023/01/25 07:04:47;;;;;;;4.13;2.20;;;;;;;;;;5026154;28;20120;-73
2023/01/25 07:07:13;;;;;;;2.97;2.10;;;;;;;;;;5026395;28;20080;-73
2023/01/25 07:09:39;;;;;;;3.05;2.10;;;;;;;;;;5024850;28;20521;-72
2023/01/25 07:12:05;;;;;;;2.42;2.00;;;;;;;;;;5030789;28;20029;-73
2023/01/25 07:14:31;;;;;;;4.15;2.28;;;;;;;;;;5026655;28;20505;-72
2023/01/25 07:16:57;;;;;;;2.63;1.95;;;;;;;;;;5026396;28;20071;-72
2023/01/25 07:19:23;;;;;;;4.85;2.35;;;;;;;;;;5019685;28;20112;-73
2023/01/25 07:21:49;;;;;;;2.95;1.67;;;;;;;;;;5026172;28;20026;-73
2023/01/25 07:24:16;;;;;;;2.92;1.73;;;;;;;;;;5026275;28;20033;-73
2023/01/25 07:26:42;;;;;;;4.97;2.10;;;;;;;;;;5026072;28;20112;-73
2023/01/25 07:29:11;;;;;;;4.60;2.17;;;;;;;;;;5025849;28;20060;-73
2023/01/25 07:31:37;;;;;;;3.88;2.05;;;;;;;;;;5015035;28;20489;-73
2023/01/25 07:34:03;;;;;;;3.97;2.22;;;;;;;;;;5026144;28;20017;-74
2023/01/25 07:36:29;;;;;;;3.08;1.88;;;;;;;;;;5026478;28;20017;-73
2023/01/25 07:38:56;;;;;;;4.43;2.05;;;;;;;;;;5026004;28;20397;-73
2023/01/25 07:41:23;;;;;;;3.13;2.05;;;;;;;;;;5019768;28;20363;-73
2023/01/25 07:43:49;;;;;;;3.55;2.20;;;;;;;;;;5026319;28;20022;-74
2023/01/25 07:46:16;;;;;;;2.28;1.90;;;;;;;;;;5026036;28;20037;-73
2023/01/25 07:48:45;;;;;;;5.03;1.92;;;;;;;;;;5023479;28;20030;-73
2023/01/25 07:51:11;;;;;;;3.53;1.98;;;;;;;;;;5025930;28;20405;-73
2023/01/25 07:53:38;;;;;;;3.40;2.10;;;;;;;;;;5018679;28;20394;-73
2023/01/25 07:56:04;;;;;;;4.50;2.10;;;;;;;;;;5026025;28;20018;-74
2023/01/25 07:58:30;;;;;;;3.53;2.33;;;;;;;;;;5025680;28;20030;-74
2023/01/25 08:00:56;;;;;;;4.75;1.95;;;;;;;;;;5018013;28;20072;-74
2023/01/25 08:03:22;;;;;;;2.75;1.98;;;;;;;;;;5010314;28;20317;-74
2023/01/25 08:05:48;;;;;;;4.05;1.88;;;;;;;;;;5021573;28;20044;-73
2023/01/25 08:08:15;;;;;;;4.75;2.17;;;;;;;;;;5038592;28;20036;-73
2023/01/25 08:10:41;;;;;;;3.33;2.13;;;;;;;;;;5045581;28;20664;-73
2023/01/25 08:13:07;;;;;;;3.28;2.00;;;;;;;;;;5030907;28;20013;-73
2023/01/25 08:15:33;;;;;;;5.65;2.20;;;;;;;;;;5022523;28;20751;-73
2023/01/25 08:17:59;;;;;;;5.38;2.30;;;;;;;;;;5023914;28;20022;-73
2023/01/25 08:20:25;;;;;;;3.83;2.20;;;;;;;;;;5026572;28;20104;-73
2023/01/25 08:22:51;;;;;;;6.18;2.58;;;;;;;;;;5012812;28;20465;-72
2023/01/25 08:25:17;;;;;;;2.42;1.80;;;;;;;;;;5012755;28;20041;-73
2023/01/25 08:27:44;;;;;;;2.78;1.75;;;;;;;;;;5012891;28;20449;-73
2023/01/25 08:30:13;;;;;;;4.03;2.00;;;;;;;;;;5017729;28;20474;-73
2023/01/25 08:32:39;;;;;;;4.13;2.05;;;;;;;;;;5019017;28;20038;-73
2023/01/25 08:35:05;;;;;;;3.88;2.13;;;;;;;;;;5021126;28;20033;-73
2023/01/25 08:37:31;;;;;;;4.30;2.30;;;;;;;;;;5004617;28;20152;-72
2023/01/25 08:39:58;;;;;;;3.08;2.20;;;;;;;;;;5029733;28;20030;-73
2023/01/25 08:42:24;;;;;;;5.68;2.28;;;;;;;;;;5018379;28;20032;-71
2023/01/25 08:44:50;;;;;;;4.38;2.28;;;;;;;;;;5018383;28;20029;-73
2023/01/25 08:47:16;;;;;;;3.38;1.95;;;;;;;;;;5027636;28;20386;-76
2023/01/25 08:49:42;;;;;;;4.85;2.30;;;;;;;;;;5021566;28;20026;-72
2023/01/25 08:52:08;;;;;;;3.78;2.17;;;;;;;;;;5016267;28;20021;-72
2023/01/25 08:54:34;;;;;;;4.38;2.08;;;;;;;;;;5027846;28;20119;-73
2023/01/25 08:57:01;;;;;;;4.25;2.33;;;;;;;;;;5022440;28;20477;-73
2023/01/25 08:59:27;;;;;;;3.13;1.92;;;;;;;;;;5018027;28;20129;-73
2023/01/25 09:01:53;;;;;;;4.72;2.45;;;;;;;;;;5026321;28;20029;-72
2023/01/25 09:04:19;;;;;;;4.13;2.15;;;;;;;;;;5028788;28;20026;-70
2023/01/25 09:06:45;;;;;;;3.97;2.50;;;;;;;;;;5025081;28;20544;-71
2023/01/25 09:09:12;;;;;;;3.97;1.85;;;;;;;;;;5018357;28;20275;-70
2023/01/25 09:11:39;;;;;;;3.70;2.50;;;;;;;;;;5023703;28;20452;-71
2023/01/25 09:14:05;;;;;;;4.55;2.08;;;;;;;;;;5025973;28;20606;-73
2023/01/25 09:16:31;;;;;;;4.10;2.58;;;;;;;;;;5020645;28;20536;-72
2023/01/25 09:18:59;;;;;;;4.68;2.25;;;;;;;;;;5025828;28;20079;-70
2023/01/25 09:21:25;;;;;;;2.92;1.80;;;;;;;;;;5025055;28;20022;-72
2023/01/25 09:23:51;;;;;;;4.32;2.10;;;;;;;;;;5012952;28;20029;-71
2023/01/25 09:26:18;;;;;;;3.38;1.85;;;;;;;;;;5015340;28;20310;-70
2023/01/25 09:28:48;;;;;;;5.25;2.33;;;;;;;;;;5025158;28;20030;-70
2023/01/25 09:31:14;;;;;;;4.82;2.92;;;;;;;;;;5028647;28;20394;-71
2023/01/25 09:33:41;;;;;;;4.28;2.28;;;;;;;;;;5019973;28;20036;-71
2023/01/25 09:36:07;;;;;;;3.45;1.75;;;;;;;;;;5026844;28;20026;-70
2023/01/25 09:38:33;;;;;;;5.43;2.08;;;;;;;;;;5019944;28;20026;-72
2023/01/25 09:41:11;;;;;;;5.03;2.38;;;;;;;;;;5027804;28;20026;-72
2023/01/25 09:43:46;;;;;;;5.93;3.20;;;;;;;;;;5008099;28;20022;-76
2023/01/25 09:46:38;;;;;;;4.45;2.85;;;;;;;;;;5021961;28;20040;-76
2023/01/25 09:49:23;;;;;;;5.60;3.30;;;;;;;;;;4990684;28;20076;-75
2023/01/25 09:51:49;;;;;;;7.20;3.55;;;;;;;;;;5009889;28;20030;-75
2023/01/25 09:54:17;;;;;;;4.30;2.80;;;;;;;;;;5022266;28;20017;-76
2023/01/25 09:56:43;;;;;;;6.07;2.72;;;;;;;;;;5026288;28;20104;-75
2023/01/25 09:59:15;;;;;;;5.40;2.90;;;;;;;;;;5013238;28;20129;-76
2023/01/25 10:01:46;;;;;;;6.53;2.63;;;;;;;;;;5023270;28;20041;-75
2023/01/25 10:04:12;;;;;;;5.90;3.05;;;;;;;;;;5017066;28;20186;-75
2023/01/25 10:06:39;;;;;;;5.93;2.50;;;;;;;;;;5003436;28;20550;-71
2023/01/25 10:09:29;;;;;;;4.95;2.67;;;;;;;;;;5006235;28;20144;-72
2023/01/25 10:12:01;;;;;;;5.55;2.70;;;;;;;;;;5020504;28;20482;-73
2023/01/25 10:14:32;;;;;;;4.53;2.67;;;;;;;;;;5012278;28;20149;-72
2023/01/25 10:17:02;;;;;;;5.57;2.88;;;;;;;;;;5013004;28;20025;-72
2023/01/25 10:19:43;;;;;;;4.10;2.40;;;;;;;;;;5010337;28;20022;-72
2023/01/25 10:22:16;;;;;;;5.97;2.85;;;;;;;;;;5018056;28;20075;-72
2023/01/25 10:25:01;;;;;;;5.40;2.20;;;;;;;;;;5020001;28;20037;-72
2023/01/25 10:27:36;;;;;;;3.97;2.20;;;;;;;;;;5021821;28;20025;-72
2023/01/25 10:30:13;;;;;;;4.72;2.47;;;;;;;;;;5014155;28;20025;-73
2023/01/25 10:32:40;;;;;;;4.53;2.63;;;;;;;;;;5013767;28;20036;-73
2023/01/25 10:35:20;;;;;;;4.57;2.53;;;;;;;;;;5008502;28;20029;-73
2023/01/25 10:37:47;;;;;;;3.73;2.17;;;;;;;;;;5013368;28;20030;-73
2023/01/25 10:40:22;;;;;;;4.57;2.67;;;;;;;;;;5007420;28;20951;-73
2023/01/25 10:42:56;;;;;;;4.38;2.97;;;;;;;;;;5009984;28;20048;-73
2023/01/25 10:45:21;;;;;;;4.25;2.42;;;;;;;;;;5012249;28;20030;-73
2023/01/25 10:47:56;;;;;;;4.00;2.40;;;;;;;;;;5010013;28;20034;-73
2023/01/25 10:50:43;;;;;;;8.65;3.05;;;;;;;;;;5010174;28;20025;-71
2023/01/25 10:53:23;;;;;;;3.83;2.40;;;;;;;;;;5015025;28;20018;-72
2023/01/25 10:55:58;;;;;;;5.38;2.92;;;;;;;;;;5015288;28;20060;-74
2023/01/25 10:58:31;;;;;;;5.88;2.53;;;;;;;;;;5018291;28;20046;-73
2023/01/25 11:00:57;;;;;;;4.20;2.63;;;;;;;;;;5025958;28;20136;-73
2023/01/25 11:03:32;;;;;;;4.68;2.38;;;;;;;;;;5025839;28;20545;-73
2023/01/25 11:05:58;;;;;;;4.93;2.47;;;;;;;;;;5025886;28;20038;-73
2023/01/25 11:08:26;;;;;;;5.47;2.45;;;;;;;;;;5008215;28;20060;-73
2023/01/25 11:10:53;;;;;;;3.80;2.17;;;;;;;;;;5025937;28;20021;-73
2023/01/25 11:13:21;;;;;;;5.15;2.22;;;;;;;;;;5028246;28;20289;-73
2023/01/25 11:15:50;;;;;;;5.60;2.35;;;;;;;;;;5025276;28;20026;-72
2023/01/25 11:18:33;;;;;;;6.28;3.08;;;;;;;;;;5025315;28;20025;-73
2023/01/25 11:21:05;;;;;;;5.88;2.20;;;;;;;;;;5025249;28;20382;-73
2023/01/25 11:23:32;;;;;;;5.78;2.40;;;;;;;;;;5025668;28;20030;-72
2023/01/25 11:26:15;;;;;;;3.28;2.20;;;;;;;;;;5025694;28;20026;-73
2023/01/25 11:28:43;;;;;;;6.85;2.53;;;;;;;;;;5025737;28;20030;-74
2023/01/25 11:31:11;;;;;;;5.20;2.55;;;;;;;;;;5025456;28;20026;-73
2023/01/25 11:33:37;;;;;;;7.07;2.50;;;;;;;;;;5025167;28;20033;-74
2023/01/25 11:36:10;;;;;;;6.82;2.45;;;;;;;;;;5025143;28;20025;-73
2023/01/25 11:38:37;;;;;;;4.00;2.03;;;;;;;;;;5024958;28;20107;-74
2023/01/25 11:41:11;;;;;;;3.38;2.05;;;;;;;;;;5025160;28;20367;-73
2023/01/25 11:43:55;;;;;;;4.60;2.60;;;;;;;;;;5025049;28;20044;-73
2023/01/25 11:46:26;;;;;;;7.00;2.35;;;;;;;;;;5025301;28;20618;-74
2023/01/25 11:48:52;;;;;;;4.50;2.20;;;;;;;;;;5025196;28;20029;-73
2023/01/25 11:51:24;;;;;;;6.55;3.00;;;;;;;;;;5024844;28;20032;-73
2023/01/25 11:53:55;;;;;;;5.93;2.45;;;;;;;;;;5024883;28;20026;-73
2023/01/25 11:56:27;;;;;;;4.38;2.40;;;;;;;;;;5025224;28;20116;-74
2023/01/25 11:59:22;;;;;;;5.00;3.10;;;;;;;;;;5024765;28;20537;-73
2023/01/25 12:02:08;;;;;;;4.05;2.45;;;;;;;;;;5003840;28;20045;-73
2023/01/25 12:04:53;;;;;;;4.38;2.53;;;;;;;;;;5024869;28;20265;-74
2023/01/25 12:07:26;;;;;;;3.65;2.50;;;;;;;;;;5025057;28;20028;-74
2023/01/25 12:10:11;;;;;;;6.25;2.60;;;;;;;;;;5028607;28;20029;-73
2023/01/25 12:12:43;;;;;;;3.97;2.10;;;;;;;;;;5032675;28;20018;-74
2023/01/25 12:15:11;;;;;;;4.93;2.58;;;;;;;;;;5028923;28;20448;-74
2023/01/25 12:17:56;;;;;;;8.40;2.65;;;;;;;;;;5028552;28;20492;-74
2023/01/25 12:20:40;;;;;;;5.45;2.53;;;;;;;;;;5028560;28;20114;-74
2023/01/25 12:23:30;;;;;;;4.15;2.25;;;;;;;;;;5028571;28;20025;-73
2023/01/25 12:25:59;;;;;;;3.78;2.13;;;;;;;;;;5028687;28;20120;-74
2023/01/25 12:28:30;;;;;;;6.38;3.30;;;;;;;;;;5029004;28;20022;-73
2023/01/25 12:31:05;;;;;;;4.93;2.60;;;;;;;;;;5028572;28;20029;-73
2023/01/25 12:33:38;;;;;;;4.25;2.17;;;;;;;;;;5028354;28;20031;-73
2023/01/25 12:36:16;;;;;;;5.20;2.50;;;;;;;;;;5028158;28;20112;-73
2023/01/25 12:38:48;;;;;;;4.70;2.63;;;;;;;;;;5028650;28;20492;-73
2023/01/25 12:41:44;;;;;;;9.07;2.92;;;;;;;;;;5028565;28;20112;-74
2023/01/25 12:44:16;;;;;;;4.88;2.95;;;;;;;;;;4995265;28;20090;-73
2023/01/25 12:46:46;;;;;;;5.68;2.67;;;;;;;;;;5028373;28;20032;-73
2023/01/25 12:49:21;;;;;;;3.38;2.25;;;;;;;;;;5028668;28;20112;-73
2023/01/25 12:51:48;;;;;;;5.40;2.08;;;;;;;;;;5028073;28;20491;-73
2023/01/25 12:54:19;;;;;;;4.30;2.47;;;;;;;;;;5028500;28;20113;-73
2023/01/25 12:56:45;;;;;;;;;;;;;;;;;;5028241;28;20250;-73
2023/01/25 12:59:18;;;;;;;4.50;2.55;;;;;;;;;;5028239;28;20475;-73
2023/01/25 13:01:56;;;;;;;4.55;2.70;;;;;;;;;;5027970;28;20074;-73
2023/01/25 13:04:22;;;;;;;4.50;2.65;;;;;;;;;;5027807;28;20025;-73
2023/01/25 13:07:10;;;;;;;6.65;3.13;;;;;;;;;;5027519;28;20792;-74
2023/01/25 13:09:39;;;;;;;4.05;2.63;;;;;;;;;;5027412;28;20486;-73
2023/01/25 13:12:05;;;;;;;3.97;2.55;;;;;;;;;;5032018;28;20018;-73
2023/01/25 13:14:35;;;;;;;6.22;2.47;;;;;;;;;;5027668;28;20021;-74
2023/01/25 13:17:10;;;;;;;5.88;2.78;;;;;;;;;;5027547;28;20032;-72
2023/01/25 13:19:36;;;;;;;4.78;2.75;;;;;;;;;;5026594;28;20033;-73
2023/01/25 13:22:03;;;;;;;7.20;2.85;;;;;;;;;;5027332;28;20099;-73
2023/01/25 13:24:33;;;;;;;5.88;3.13;;;;;;;;;;5027802;28;20194;-73
2023/01/25 13:27:00;;;;;;;4.43;2.55;;;;;;;;;;5027708;28;20366;-73
2023/01/25 13:29:46;;;;;;;6.07;3.08;;;;;;;;;;5027756;28;20063;-73
2023/01/25 13:32:14;;;;;;;6.30;2.83;;;;;;;;;;5028087;28;20022;-72
2023/01/25 13:34:56;;;;;;;5.85;2.88;;;;;;;;;;5027377;28;20025;-73
2023/01/25 13:37:23;;;;;;;4.32;2.60;;;;;;;;;;5027429;28;20386;-73
2023/01/25 13:39:51;;;;;;;8.93;3.70;;;;;;;;;;5026917;28;20293;-73
2023/01/25 13:42:20;;;;;;;7.43;3.42;;;;;;;;;;5026988;28;20033;-73
2023/01/25 13:44:48;;;;;;;6.78;3.25;;;;;;;;;;5026907;28;20420;-73
2023/01/25 13:47:19;;;;;;;4.65;2.60;;;;;;;;;;5027299;28;20033;-73
2023/01/25 13:49:48;;;;;;;4.20;2.67;;;;;;;;;;5026861;28;20111;-73
2023/01/25 13:52:16;;;;;;;6.45;2.63;;;;;;;;;;5027130;28;20064;-73
2023/01/25 13:54:43;;;;;;;6.18;3.00;;;;;;;;;;5027244;28;20525;-73
2023/01/25 13:57:19;;;;;;;6.40;3.28;;;;;;;;;;5027098;28;20507;-72
2023/01/25 13:59:45;;;;;;;5.47;2.55;;;;;;;;;;5026673;28;20204;-73
2023/01/25 14:02:18;;;;;;;4.95;2.63;;;;;;;;;;5027294;28;20104;-73
2023/01/25 14:04:46;;;;;;;4.57;2.47;;;;;;;;;;5026884;28;20346;-73
2023/01/25 14:07:15;;;;;;;7.07;3.13;;;;;;;;;;5027125;28;20060;-73
2023/01/25 14:09:42;;;;;;;4.25;2.40;;;;;;;;;;5026975;28;20482;-73
2023/01/25 14:12:09;;;;;;;4.53;2.58;;;;;;;;;;5030590;28;20129;-73
2023/01/25 14:14:36;;;;;;;4.95;3.10;;;;;;;;;;5026451;28;20413;-73
2023/01/25 14:17:03;;;;;;;5.65;2.65;;;;;;;;;;5026244;28;20126;-72
2023/01/25 14:19:30;;;;;;;6.45;3.10;;;;;;;;;;5026655;28;20018;-73
2023/01/25 14:22:12;;;;;;;5.32;2.95;;;;;;;;;;5026767;28;20025;-73
2023/01/25 14:24:38;;;;;;;5.57;3.00;;;;;;;;;;5026237;28;20022;-73
2023/01/25 14:27:05;;;;;;;5.95;2.88;;;;;;;;;;5026296;28;20339;-73
2023/01/25 14:29:34;;;;;;;6.65;2.95;;;;;;;;;;5026199;28;20033;-72
2023/01/25 14:32:00;;;;;;;4.15;2.70;;;;;;;;;;5025278;28;20046;-73
2023/01/25 14:34:26;;;;;;;7.88;2.85;;;;;;;;;;5026568;28;20130;-73
2023/01/25 14:37:06;;;;;;;5.40;2.67;;;;;;;;;;5025773;28;20108;-73
2023/01/25 14:39:33;;;;;;;6.90;2.85;;;;;;;;;;5026038;28;20029;-73
2023/01/25 14:41:59;;;;;;;5.97;2.72;;;;;;;;;;5026099;28;20032;-73
2023/01/25 14:44:25;;;;;;;4.57;2.72;;;;;;;;;;5026332;28;20033;-73
2023/01/25 14:47:11;;;;;;;6.13;2.95;;;;;;;;;;5025673;28;20112;-72
2023/01/25 14:49:37;;;;;;;6.25;2.97;;;;;;;;;;5025598;28;20445;-73
2023/01/25 14:52:05;;;;;;;4.53;2.63;;;;;;;;;;5026039;28;20234;-73